This is the latest recevied weather packets stored in our database for station/object N4QD-13. If no packets are shown the sender has not sent any weather packets the latest 10 day(s).
| Time | Temp. | Humidity | Pressure | Rain* | Wind** | Luminosity | Snow |
|---|---|---|---|---|---|---|---|
| 1777085782 | 16.11° C | 87% | 1010.1 hPa | 0 mm | - | 0 W/m² | - |
| 1777085477 | 16.11° C | 86% | 1010.4 hPa | 0 mm | - | 0 W/m² | - |
| 1777085174 | 16.11° C | 85% | 1010.3 hPa | 0 mm | - | 0 W/m² | - |
| 1777084869 | 16.11° C | 84% | 1010.5 hPa | 0 mm | - | 0 W/m² | - |
| 1777084566 | 16.11° C | 83% | 1010.3 hPa | 0 mm | - | 0 W/m² | - |
| 1777084261 | 16.11° C | 83% | 1010.4 hPa | 0 mm | - | 0 W/m² | - |
| 1777083956 | 16.11° C | 84% | 1010.2 hPa | 0 mm | - | 0 W/m² | - |
| 1777083653 | 15.56° C | 85% | 1010.4 hPa | 0 mm | - | 0 W/m² | - |
| 1777083350 | 15.56° C | 85% | 1010.4 hPa | 0 mm | - | 0 W/m² | - |
| 1777083046 | 15.56° C | 85% | 1010.4 hPa | 0 mm | - | 0 W/m² | - |
| 1777082741 | 15.56° C | 85% | 1010.1 hPa | 0 mm | - | 0 W/m² | - |
| 1777082437 | 15.56° C | 84% | 1009.9 hPa | 0 mm | - | 0 W/m² | - |
| 1777082137 | 15.56° C | 86% | 1009.9 hPa | 0 mm | - | 0 W/m² | - |
| 1777081832 | 15.56° C | 86% | 1010.1 hPa | 0 mm | - | 0 W/m² | - |
| 1777081528 | 16.11° C | 85% | 1010.1 hPa | 0 mm | - | 0 W/m² | - |
| 1777081224 | 16.67° C | 84% | 1010.1 hPa | 0 mm | - | 0 W/m² | - |
| 1777080922 | 16.67° C | 83% | 1009.8 hPa | 0 mm | - | 0 W/m² | - |
| 1777080618 | 16.67° C | 83% | 1009.8 hPa | 0 mm | - | 0 W/m² | - |
| 1777080313 | 16.67° C | 83% | 1009.9 hPa | 0 mm | - | 0 W/m² | - |
| 1777080013 | 17.78° C | 79% | 1009.8 hPa | 0 mm | - | 0 W/m² | - |
| 1777079712 | 17.78° C | 77% | 1009.9 hPa | 0 mm | - | 0 W/m² | - |
| 1777079408 | 18.33° C | 75% | 1009.9 hPa | 0 mm | - | 0 W/m² | - |
| 1777079104 | 18.33° C | 75% | 1009.9 hPa | 0 mm | - | 0 W/m² | - |
| 1777078800 | 18.89° C | 74% | 1009.9 hPa | 0 mm | - | 0 W/m² | - |
| 1777078497 | 18.89° C | 74% | 1010 hPa | 0 mm | - | 0 W/m² | - |
* Rain latest hour (hover to see other rain measurements)
** Current wind speed in m/s (hover to see current wind gust speed)